createdAt,value
2023-05-06T00:02:17.438Z,100.00
2023-05-06T00:04:44.227Z,100.00
2023-05-06T00:07:11.807Z,100.00
2023-05-06T00:09:41.649Z,100.00
2023-05-06T00:12:08.224Z,100.00
2023-05-06T00:14:37.814Z,100.00
2023-05-06T00:17:04.607Z,100.00
2023-05-06T00:19:31.174Z,100.00
2023-05-06T00:24:44.137Z,100.00
2023-05-06T00:27:10.646Z,100.00
2023-05-06T00:29:37.017Z,100.00
2023-05-06T00:32:07.167Z,100.00
2023-05-06T00:34:36.794Z,100.00
2023-05-06T00:37:07.347Z,100.00
2023-05-06T00:39:37.911Z,100.00
2023-05-06T00:42:04.579Z,100.00
2023-05-06T00:44:33.968Z,100.00
2023-05-06T00:47:04.330Z,100.00
2023-05-06T00:49:38.586Z,100.00
2023-05-06T00:52:05.262Z,100.00
2023-05-06T00:54:31.888Z,100.00
2023-05-06T00:57:02.242Z,100.00
2023-05-06T00:59:28.727Z,100.00
2023-05-06T01:01:55.170Z,100.00
2023-05-06T01:04:27.687Z,100.00
2023-05-06T01:07:12.164Z,100.00
2023-05-06T01:13:31.169Z,100.00
2023-05-06T01:16:02.060Z,100.00
2023-05-06T01:18:34.583Z,100.00
2023-05-06T01:21:02.106Z,100.00
2023-05-06T01:23:28.538Z,100.00
2023-05-06T01:25:57.458Z,100.00
2023-05-06T01:28:26.600Z,100.00
2023-05-06T01:31:00.975Z,100.00
2023-05-06T01:37:12.788Z,100.00
2023-05-06T01:39:46.785Z,100.00
2023-05-06T01:42:15.004Z,100.00
2023-05-06T01:44:46.559Z,100.00
2023-05-06T01:47:17.316Z,100.00
2023-05-06T01:49:51.112Z,100.00
2023-05-06T01:52:23.441Z,100.00
2023-05-06T01:54:52.192Z,100.00
2023-05-06T01:57:22.038Z,100.00
2023-05-06T01:59:48.456Z,100.00
2023-05-06T02:02:17.470Z,100.00
2023-05-06T02:04:46.846Z,100.00
2023-05-06T02:07:13.311Z,100.00
2023-05-06T02:09:47.854Z,100.00
2023-05-06T02:12:14.178Z,100.00
2023-05-06T02:14:40.501Z,100.00
2023-05-06T02:17:07.200Z,100.00
2023-05-06T02:19:36.404Z,100.00
2023-05-06T02:22:10.146Z,100.00
2023-05-06T02:24:39.641Z,100.00
2023-05-06T02:27:09.290Z,100.00
2023-05-06T02:29:35.594Z,100.00
2023-05-06T02:32:02.044Z,100.00
2023-05-06T02:34:28.469Z,100.00
2023-05-06T02:36:54.824Z,100.00
2023-05-06T02:39:21.178Z,100.00
2023-05-06T02:41:47.516Z,100.00
2023-05-06T02:44:13.854Z,100.00
2023-05-06T02:46:42.328Z,100.00
2023-05-06T02:49:11.563Z,100.00
2023-05-06T02:51:37.941Z,100.00
2023-05-06T02:54:08.565Z,100.00
2023-05-06T02:56:37.894Z,100.00
2023-05-06T02:59:08.494Z,100.00
2023-05-06T03:01:37.273Z,100.00
2023-05-06T03:04:03.787Z,100.00
2023-05-06T03:06:36.022Z,100.00
2023-05-06T03:09:02.592Z,100.00
2023-05-06T03:11:33.715Z,100.00
2023-05-06T03:14:00.048Z,100.00
2023-05-06T03:16:26.741Z,100.00
2023-05-06T03:18:53.112Z,100.00
2023-05-06T03:21:24.506Z,100.00
2023-05-06T03:23:50.961Z,100.00
2023-05-06T03:26:17.385Z,100.00
2023-05-06T03:28:46.902Z,100.00
2023-05-06T03:31:16.402Z,100.00
2023-05-06T03:33:43.146Z,100.00
2023-05-06T03:36:12.197Z,100.00
2023-05-06T03:38:38.580Z,100.00
2023-05-06T03:41:04.944Z,100.00
2023-05-06T03:43:35.758Z,100.00
2023-05-06T03:46:04.863Z,100.00
2023-05-06T03:48:33.416Z,100.00
2023-05-06T03:51:05.977Z,100.00
2023-05-06T03:53:32.403Z,100.00
2023-05-06T03:56:04.076Z,100.00
2023-05-06T03:58:30.475Z,100.00
2023-05-06T04:00:56.960Z,100.00
2023-05-06T04:03:28.310Z,100.00
2023-05-06T04:05:54.748Z,100.00
2023-05-06T04:08:21.178Z,100.00
2023-05-06T04:10:47.810Z,100.00
2023-05-06T04:13:21.670Z,100.00
2023-05-06T04:16:02.767Z,100.00
2023-05-06T04:21:13.037Z,100.00
2023-05-06T04:23:39.491Z,100.00
2023-05-06T04:26:06.044Z,100.00
2023-05-06T04:28:32.887Z,100.00
2023-05-06T04:30:59.608Z,100.00
2023-05-06T04:33:29.288Z,100.00
2023-05-06T04:35:56.115Z,100.00
2023-05-06T04:38:31.920Z,100.00
2023-05-06T04:40:59.399Z,100.00
2023-05-06T04:43:34.330Z,100.00
2023-05-06T04:46:01.588Z,100.00
2023-05-06T04:48:27.975Z,100.00
2023-05-06T04:50:54.335Z,100.00
2023-05-06T04:53:20.874Z,100.00
2023-05-06T04:55:47.258Z,100.00
2023-05-06T04:58:16.759Z,100.00
2023-05-06T05:00:45.857Z,100.00
2023-05-06T05:03:12.911Z,100.00
2023-05-06T05:06:00.889Z,100.00
2023-05-06T05:08:30.057Z,100.00
2023-05-06T05:10:56.443Z,100.00
2023-05-06T05:13:26.798Z,100.00
2023-05-06T05:15:56.070Z,100.00
2023-05-06T05:18:27.641Z,100.00
2023-05-06T05:20:56.827Z,100.00
2023-05-06T05:23:23.270Z,100.00
2023-05-06T05:25:59.161Z,100.00
2023-05-06T05:28:25.588Z,100.00
2023-05-06T05:31:02.036Z,100.00
2023-05-06T05:33:28.456Z,100.00
2023-05-06T05:35:58.276Z,100.00
2023-05-06T05:38:27.435Z,100.00
2023-05-06T05:40:54.785Z,100.00
2023-05-06T05:43:22.725Z,100.00
2023-05-06T05:45:49.060Z,100.00
2023-05-06T05:48:15.461Z,100.00
2023-05-06T05:50:52.342Z,100.00
2023-05-06T05:53:18.763Z,100.00
2023-05-06T05:55:45.815Z,100.00
2023-05-06T05:58:19.337Z,100.00
2023-05-06T06:00:48.871Z,100.00
2023-05-06T06:03:17.848Z,100.00
2023-05-06T06:05:44.464Z,100.00
2023-05-06T06:08:12.405Z,100.00
2023-05-06T06:10:38.765Z,100.00
2023-05-06T06:13:06.078Z,100.00
2023-05-06T06:15:32.512Z,100.00
2023-05-06T06:18:02.639Z,100.00
2023-05-06T06:20:29.154Z,100.00
2023-05-06T06:22:55.549Z,100.00
2023-05-06T06:25:25.112Z,100.00
2023-05-06T06:27:55.643Z,100.00
2023-05-06T06:30:29.854Z,100.00
2023-05-06T06:32:56.826Z,100.00
2023-05-06T06:35:23.774Z,100.00
2023-05-06T06:37:59.557Z,100.00
2023-05-06T06:40:25.963Z,100.00
2023-05-06T06:42:54.753Z,100.00
2023-05-06T06:45:24.248Z,100.00
2023-05-06T06:47:50.752Z,100.00
2023-05-06T06:50:20.989Z,100.00
2023-05-06T06:52:47.329Z,100.00
2023-05-06T06:55:13.726Z,100.00
2023-05-06T06:57:48.355Z,100.00
2023-05-06T07:00:15.145Z,100.00
2023-05-06T07:02:41.914Z,100.00
2023-05-06T07:05:09.316Z,100.00
2023-05-06T07:07:35.953Z,100.00
2023-05-06T07:10:02.352Z,100.00
2023-05-06T07:12:36.921Z,100.00
2023-05-06T07:15:14.406Z,100.00
2023-05-06T07:17:40.851Z,100.00
2023-05-06T07:20:07.850Z,100.00
2023-05-06T07:22:37.595Z,100.00
2023-05-06T07:25:07.720Z,100.00
2023-05-06T07:27:36.702Z,100.00
2023-05-06T07:30:03.699Z,100.00
2023-05-06T07:32:33.917Z,100.00
2023-05-06T07:35:22.297Z,100.00
2023-05-06T07:37:55.912Z,100.00
2023-05-06T07:40:25.033Z,100.00
2023-05-06T07:42:58.773Z,100.00
2023-05-06T07:45:31.170Z,100.00
2023-05-06T07:48:00.529Z,100.00
2023-05-06T07:50:35.110Z,100.00
2023-05-06T07:53:01.768Z,100.00
2023-05-06T07:55:28.477Z,100.00
2023-05-06T07:58:04.164Z,100.00
2023-05-06T08:00:30.658Z,100.00
2023-05-06T08:02:57.422Z,100.00
2023-05-06T08:05:31.667Z,100.00
2023-05-06T08:08:09.682Z,99.42
2023-05-06T08:10:36.107Z,99.95
2023-05-06T08:13:08.390Z,100.00
2023-05-06T08:15:39.153Z,97.85
2023-05-06T08:18:21.047Z,98.43
2023-05-06T08:20:51.823Z,97.36
2023-05-06T08:23:18.237Z,95.41
2023-05-06T08:25:44.656Z,93.19
2023-05-06T08:28:14.098Z,92.86
2023-05-06T08:30:45.955Z,89.52
2023-05-06T08:33:12.870Z,86.99
2023-05-06T08:35:44.267Z,88.52
2023-05-06T08:38:10.830Z,89.51
2023-05-06T08:40:42.923Z,85.70
2023-05-06T08:43:14.560Z,87.54
2023-05-06T08:45:46.781Z,91.62
2023-05-06T08:48:13.266Z,89.87
2023-05-06T08:50:57.263Z,87.76
2023-05-06T08:56:32.897Z,85.77
2023-05-06T08:58:59.812Z,82.75
2023-05-06T09:01:29.571Z,82.96
2023-05-06T09:04:00.429Z,82.76
2023-05-06T09:06:27.168Z,84.35
2023-05-06T09:09:19.853Z,84.72
2023-05-06T09:11:56.852Z,86.59
2023-05-06T09:14:30.977Z,85.95
2023-05-06T09:17:00.404Z,84.28
2023-05-06T09:19:29.705Z,85.58
2023-05-06T09:21:57.292Z,92.30
2023-05-06T09:24:35.782Z,90.15
2023-05-06T09:27:10.386Z,91.99
2023-05-06T09:29:59.911Z,89.97
2023-05-06T09:32:29.151Z,90.75
2023-05-06T09:34:59.804Z,83.79
2023-05-06T09:37:26.444Z,84.97
2023-05-06T09:40:03.586Z,85.18
2023-05-06T09:42:32.332Z,84.17
2023-05-06T09:45:06.145Z,84.33
2023-05-06T09:47:34.735Z,87.44
2023-05-06T09:50:02.999Z,81.16
2023-05-06T09:52:29.865Z,81.51
2023-05-06T09:55:04.892Z,81.20
2023-05-06T09:57:34.826Z,83.97
2023-05-06T10:00:02.904Z,80.82
2023-05-06T10:02:33.930Z,82.00
2023-05-06T10:05:12.132Z,80.76
2023-05-06T10:07:43.178Z,78.49
2023-05-06T10:10:20.696Z,73.04
2023-05-06T10:12:50.984Z,73.39
2023-05-06T10:15:17.731Z,74.29
2023-05-06T10:17:47.955Z,75.37
2023-05-06T10:20:23.739Z,74.91
2023-05-06T10:23:09.637Z,71.71
2023-05-06T10:25:42.417Z,69.40
2023-05-06T10:28:16.660Z,69.35
2023-05-06T10:30:58.190Z,66.74
2023-05-06T10:33:35.855Z,69.06
2023-05-06T10:39:15.980Z,66.87
2023-05-06T10:41:42.622Z,69.26
2023-05-06T10:44:10.822Z,64.10
2023-05-06T10:47:00.856Z,64.85
2023-05-06T10:49:27.905Z,64.15
2023-05-06T10:54:59.472Z,62.43
2023-05-06T10:57:27.422Z,62.03
2023-05-06T11:00:02.788Z,60.21
2023-05-06T11:02:30.247Z,59.88
2023-05-06T11:05:04.444Z,60.24
2023-05-06T11:07:33.696Z,60.31
2023-05-06T11:10:02.409Z,59.28
2023-05-06T11:12:56.694Z,60.41
2023-05-06T11:15:40.301Z,60.01
2023-05-06T11:18:31.488Z,61.00
2023-05-06T11:21:03.795Z,59.12
2023-05-06T11:23:42.334Z,58.45
2023-05-06T11:28:52.321Z,56.36
2023-05-06T11:31:19.534Z,55.34
2023-05-06T11:33:47.770Z,57.10
2023-05-06T11:36:18.722Z,57.61
2023-05-06T11:38:52.789Z,55.26
2023-05-06T11:41:24.896Z,56.47
2023-05-06T11:43:53.986Z,55.93
2023-05-06T11:46:25.679Z,56.76
2023-05-06T11:48:55.136Z,54.90
2023-05-06T11:51:22.389Z,54.37
2023-05-06T11:53:52.665Z,55.81
2023-05-06T11:56:19.035Z,55.55
2023-05-06T11:58:46.287Z,55.06
2023-05-06T12:01:16.365Z,55.15
2023-05-06T12:03:45.876Z,56.28
2023-05-06T12:06:13.095Z,55.84
2023-05-06T12:08:49.551Z,56.76
2023-05-06T12:11:16.033Z,54.61
2023-05-06T12:13:47.885Z,56.03
2023-05-06T12:16:15.614Z,53.83
2023-05-06T12:18:44.507Z,54.27
2023-05-06T12:21:14.304Z,55.12
2023-05-06T12:24:00.927Z,55.90
2023-05-06T12:26:43.149Z,56.50
2023-05-06T12:29:18.636Z,56.20
2023-05-06T12:31:51.893Z,54.87
2023-05-06T12:34:36.553Z,53.73
2023-05-06T12:37:03.206Z,51.15
2023-05-06T12:39:51.014Z,52.58
2023-05-06T12:42:28.714Z,51.06
2023-05-06T12:45:01.403Z,51.03
2023-05-06T12:47:30.666Z,51.21
2023-05-06T12:52:45.823Z,51.14
2023-05-06T12:55:15.026Z,50.07
2023-05-06T12:57:46.562Z,49.18
2023-05-06T13:00:16.465Z,50.85
2023-05-06T13:02:42.918Z,52.36
2023-05-06T13:05:18.601Z,52.74
2023-05-06T13:07:45.033Z,51.34
2023-05-06T13:10:15.403Z,52.05
2023-05-06T13:12:44.931Z,51.66
2023-05-06T13:15:11.856Z,52.07
2023-05-06T13:17:38.520Z,51.73
2023-05-06T13:20:08.420Z,52.08
2023-05-06T13:22:53.605Z,51.57
2023-05-06T13:25:29.632Z,50.54
2023-05-06T13:27:56.068Z,50.04
2023-05-06T13:30:28.017Z,51.74
2023-05-06T13:32:54.429Z,52.00
2023-05-06T13:35:21.097Z,50.76
2023-05-06T13:37:50.943Z,50.38
2023-05-06T13:40:20.319Z,49.66
2023-05-06T13:42:46.932Z,48.75
2023-05-06T13:45:17.469Z,48.19
2023-05-06T13:47:48.295Z,49.55
2023-05-06T13:50:27.718Z,49.93
2023-05-06T13:52:58.516Z,48.11
2023-05-06T13:55:27.693Z,49.57
2023-05-06T13:57:54.045Z,48.89
2023-05-06T14:00:26.077Z,46.33
2023-05-06T14:02:56.197Z,47.03
2023-05-06T14:05:26.197Z,47.81
2023-05-06T14:07:55.956Z,47.08
2023-05-06T14:10:29.852Z,45.11
2023-05-06T14:12:59.112Z,44.46
2023-05-06T14:15:27.963Z,44.65
2023-05-06T14:17:54.412Z,45.86
2023-05-06T14:20:23.672Z,44.19
2023-05-06T14:22:56.568Z,44.85
2023-05-06T14:25:27.821Z,44.87
2023-05-06T14:28:04.444Z,46.52
2023-05-06T14:30:31.133Z,43.91
2023-05-06T14:33:22.828Z,44.49
2023-05-06T14:35:52.762Z,45.57
2023-05-06T14:41:11.764Z,44.72
2023-05-06T14:43:38.177Z,43.51
2023-05-06T14:46:17.779Z,46.46
2023-05-06T14:48:53.067Z,45.99
2023-05-06T14:51:19.514Z,43.36
2023-05-06T14:53:48.697Z,46.56
2023-05-06T14:56:25.264Z,46.38
2023-05-06T14:58:54.047Z,45.38
2023-05-06T15:01:23.310Z,45.39
2023-05-06T15:03:50.949Z,44.36
2023-05-06T15:06:23.626Z,44.93
2023-05-06T15:08:53.902Z,45.89
2023-05-06T15:11:23.335Z,44.59
2023-05-06T15:13:52.689Z,47.67
2023-05-06T15:16:19.122Z,47.27
2023-05-06T15:18:48.180Z,47.46
2023-05-06T15:21:17.657Z,49.22
2023-05-06T15:23:51.962Z,48.52
2023-05-06T15:26:21.449Z,49.10
2023-05-06T15:28:53.418Z,49.73
2023-05-06T15:31:22.817Z,48.76
2023-05-06T15:33:49.191Z,48.74
2023-05-06T15:36:47.221Z,50.29
2023-05-06T15:42:02.482Z,51.70
2023-05-06T15:44:33.229Z,50.14
2023-05-06T15:47:00.640Z,49.36
2023-05-06T15:49:51.011Z,51.13
2023-05-06T15:52:13.419Z,50.09
2023-05-06T15:54:40.986Z,49.37
2023-05-06T15:57:17.367Z,50.74
2023-05-06T15:59:43.692Z,51.68
2023-05-06T16:02:26.986Z,49.27
2023-05-06T16:05:04.395Z,50.54
2023-05-06T16:07:32.289Z,51.28
2023-05-06T16:09:58.673Z,51.57
2023-05-06T16:12:25.241Z,52.21
2023-05-06T16:14:51.588Z,50.26
2023-05-06T16:17:22.927Z,52.21
2023-05-06T16:19:49.312Z,49.38
2023-05-06T16:22:16.294Z,50.28
2023-05-06T16:24:43.257Z,49.04
2023-05-06T16:27:12.168Z,52.95
2023-05-06T16:29:38.608Z,50.10
2023-05-06T16:32:16.980Z,51.29
2023-05-06T16:34:43.301Z,53.73
2023-05-06T16:37:13.786Z,53.26
2023-05-06T16:39:42.978Z,53.27
2023-05-06T16:42:12.159Z,53.29
2023-05-06T16:44:38.539Z,53.91
2023-05-06T16:47:05.035Z,54.26
2023-05-06T16:49:36.438Z,52.89
2023-05-06T16:52:03.807Z,55.06
2023-05-06T16:54:34.608Z,52.63
2023-05-06T16:57:06.057Z,54.97
2023-05-06T16:59:32.985Z,53.55
2023-05-06T17:01:59.385Z,56.56
2023-05-06T17:04:35.411Z,57.16
2023-05-06T17:07:01.987Z,56.17
2023-05-06T17:09:31.725Z,55.44
2023-05-06T17:12:00.923Z,55.24
2023-05-06T17:14:28.109Z,54.58
2023-05-06T17:16:55.943Z,54.23
2023-05-06T17:19:23.429Z,57.33
2023-05-06T17:21:50.357Z,57.23
2023-05-06T17:24:17.740Z,58.04
2023-05-06T17:26:46.519Z,56.87
2023-05-06T17:29:12.889Z,57.37
2023-05-06T17:34:19.556Z,58.91
2023-05-06T17:36:48.847Z,59.65
2023-05-06T17:39:15.389Z,58.92
2023-05-06T17:41:41.829Z,60.66
2023-05-06T17:44:12.161Z,59.98
2023-05-06T17:46:38.649Z,61.52
2023-05-06T17:49:05.092Z,61.20
2023-05-06T17:51:37.703Z,64.30
2023-05-06T17:54:08.047Z,68.97
2023-05-06T17:56:40.564Z,73.30
2023-05-06T17:59:11.350Z,77.13
2023-05-06T18:01:50.924Z,80.58
2023-05-06T18:06:59.280Z,84.76
2023-05-06T18:09:30.642Z,87.32
2023-05-06T18:11:57.064Z,90.22
2023-05-06T18:14:23.491Z,94.64
2023-05-06T18:16:56.906Z,97.55
2023-05-06T18:19:23.290Z,99.53
2023-05-06T18:21:52.214Z,100.00
2023-05-06T18:24:21.495Z,100.00
2023-05-06T18:26:48.099Z,100.00
2023-05-06T18:29:18.531Z,100.00
2023-05-06T18:31:45.124Z,100.00
2023-05-06T18:34:11.665Z,100.00
2023-05-06T18:36:42.467Z,100.00
2023-05-06T18:39:08.848Z,100.00
2023-05-06T18:41:35.235Z,100.00
2023-05-06T18:44:04.940Z,100.00
2023-05-06T18:46:34.098Z,100.00
2023-05-06T18:49:01.019Z,100.00
2023-05-06T18:51:30.102Z,100.00
2023-05-06T18:53:59.440Z,100.00
2023-05-06T18:59:13.966Z,100.00
2023-05-06T19:01:43.711Z,100.00
2023-05-06T19:04:10.141Z,100.00
2023-05-06T19:06:39.444Z,100.00
2023-05-06T19:09:07.212Z,100.00
2023-05-06T19:11:34.817Z,100.00
2023-05-06T19:14:03.546Z,100.00
2023-05-06T19:16:30.235Z,100.00
2023-05-06T19:18:56.657Z,100.00
2023-05-06T19:21:23.445Z,100.00
2023-05-06T19:23:49.938Z,100.00
2023-05-06T19:26:16.316Z,100.00
2023-05-06T19:28:42.637Z,100.00
2023-05-06T19:31:13.082Z,100.00
2023-05-06T19:33:42.584Z,100.00
2023-05-06T19:36:31.698Z,100.00
2023-05-06T19:38:57.498Z,100.00
2023-05-06T19:41:26.737Z,100.00
2023-05-06T19:43:53.417Z,100.00
2023-05-06T19:46:20.731Z,100.00
2023-05-06T19:48:50.284Z,100.00
2023-05-06T19:51:25.023Z,100.00
2023-05-06T19:53:51.372Z,100.00
2023-05-06T19:56:18.765Z,100.00
2023-05-06T19:58:48.471Z,100.00
2023-05-06T20:01:21.724Z,100.00
2023-05-06T20:03:56.121Z,100.00
2023-05-06T20:06:22.492Z,100.00
2023-05-06T20:08:51.216Z,100.00
2023-05-06T20:11:25.212Z,100.00
2023-05-06T20:13:53.155Z,100.00
2023-05-06T20:16:19.673Z,100.00
2023-05-06T20:18:47.584Z,100.00
2023-05-06T20:21:16.976Z,100.00
2023-05-06T20:23:43.797Z,100.00
2023-05-06T20:26:10.261Z,100.00
2023-05-06T20:28:41.688Z,100.00
2023-05-06T20:31:08.311Z,100.00
2023-05-06T20:33:35.045Z,100.00
2023-05-06T20:36:01.430Z,100.00
2023-05-06T20:38:40.903Z,100.00
2023-05-06T20:43:54.805Z,100.00
2023-05-06T20:46:24.694Z,100.00
2023-05-06T20:51:37.852Z,100.00
2023-05-06T20:54:07.301Z,100.00
2023-05-06T20:56:33.726Z,100.00
2023-05-06T20:59:09.125Z,100.00
2023-05-06T21:01:35.874Z,100.00
2023-05-06T21:04:05.811Z,100.00
2023-05-06T21:06:35.238Z,100.00
2023-05-06T21:09:01.853Z,100.00
2023-05-06T21:11:31.812Z,100.00
2023-05-06T21:13:58.178Z,100.00
2023-05-06T21:16:24.627Z,100.00
2023-05-06T21:21:37.353Z,100.00
2023-05-06T21:24:03.926Z,100.00
2023-05-06T21:26:30.959Z,100.00
2023-05-06T21:29:07.369Z,100.00
2023-05-06T21:31:33.880Z,100.00
2023-05-06T21:34:10.479Z,100.00
2023-05-06T21:36:39.517Z,100.00
2023-05-06T21:39:12.697Z,100.00
2023-05-06T21:41:42.995Z,100.00
2023-05-06T21:44:10.226Z,100.00
2023-05-06T21:46:37.806Z,100.00
2023-05-06T21:49:07.142Z,100.00
2023-05-06T21:51:38.213Z,100.00
2023-05-06T21:54:04.648Z,100.00
2023-05-06T21:56:33.808Z,100.00
2023-05-06T21:59:03.917Z,100.00
2023-05-06T22:01:30.318Z,100.00
2023-05-06T22:04:00.885Z,100.00
2023-05-06T22:06:27.459Z,100.00
2023-05-06T22:08:53.856Z,100.00
2023-05-06T22:11:24.686Z,100.00
2023-05-06T22:13:54.213Z,100.00
2023-05-06T22:16:23.187Z,100.00
2023-05-06T22:18:49.733Z,100.00
2023-05-06T22:21:16.081Z,100.00
2023-05-06T22:23:42.464Z,100.00
2023-05-06T22:26:17.703Z,100.00
2023-05-06T22:28:44.016Z,100.00
2023-05-06T22:31:10.501Z,100.00
2023-05-06T22:33:43.594Z,100.00
2023-05-06T22:36:09.954Z,100.00
2023-05-06T22:41:19.729Z,100.00
2023-05-06T22:43:48.967Z,100.00
2023-05-06T22:46:15.563Z,100.00
2023-05-06T22:48:46.230Z,100.00
2023-05-06T22:51:15.625Z,100.00
2023-05-06T22:53:43.235Z,100.00
2023-05-06T22:56:15.732Z,100.00
2023-05-06T22:58:42.112Z,100.00
2023-05-06T23:01:10.993Z,100.00
2023-05-06T23:03:40.595Z,100.00
2023-05-06T23:06:07.036Z,100.00
2023-05-06T23:11:19.171Z,100.00
2023-05-06T23:13:45.792Z,100.00
2023-05-06T23:16:12.173Z,100.00
2023-05-06T23:18:47.483Z,100.00
2023-05-06T23:21:13.950Z,100.00
2023-05-06T23:23:43.486Z,100.00
2023-05-06T23:26:13.047Z,100.00
2023-05-06T23:28:39.376Z,100.00
2023-05-06T23:31:18.899Z,100.00
2023-05-06T23:33:49.260Z,100.00
2023-05-06T23:36:18.574Z,100.00
2023-05-06T23:38:44.994Z,100.00
2023-05-06T23:41:14.878Z,100.00
2023-05-06T23:43:44.178Z,100.00
2023-05-06T23:46:14.895Z,100.00
2023-05-06T23:48:48.371Z,100.00
2023-05-06T23:51:14.760Z,100.00
2023-05-06T23:53:46.563Z,100.00
2023-05-06T23:56:13.028Z,100.00
